sensor_id;sensor_type;location;lat;lon;timestamp;pressure;altitude;pressure_sealevel;temperature;humidity
62800;BME280;48842;51.046;13.796;2023-01-29T00:01:14;101649.56;;;2.59;50.97
62800;BME280;48842;51.046;13.796;2023-01-29T00:03:40;101638.13;;;2.55;51.37
62800;BME280;48842;51.046;13.796;2023-01-29T00:06:07;101636.19;;;2.51;51.59
62800;BME280;48842;51.046;13.796;2023-01-29T00:08:36;101630.81;;;2.48;51.04
62800;BME280;48842;51.046;13.796;2023-01-29T00:11:03;101629.13;;;2.49;51.56
62800;BME280;48842;51.046;13.796;2023-01-29T00:13:29;101629.94;;;2.48;51.57
62800;BME280;48842;51.046;13.796;2023-01-29T00:15:56;101618.97;;;2.37;51.06
62800;BME280;48842;51.046;13.796;2023-01-29T00:18:21;101620.47;;;2.33;51.08
62800;BME280;48842;51.046;13.796;2023-01-29T00:20:47;101617.97;;;2.35;51.24
62800;BME280;48842;51.046;13.796;2023-01-29T00:23:12;101622.44;;;2.37;51.46
62800;BME280;48842;51.046;13.796;2023-01-29T00:25:37;101623.16;;;2.35;51.32
62800;BME280;48842;51.046;13.796;2023-01-29T00:28:02;101617.63;;;2.29;51.37
62800;BME280;48842;51.046;13.796;2023-01-29T00:30:28;101610.75;;;2.29;51.42
62800;BME280;48842;51.046;13.796;2023-01-29T00:32:53;101607.38;;;2.30;51.44
62800;BME280;48842;51.046;13.796;2023-01-29T00:35:18;101607.47;;;2.32;51.52
62800;BME280;48842;51.046;13.796;2023-01-29T00:37:44;101606.50;;;2.30;51.00
62800;BME280;48842;51.046;13.796;2023-01-29T00:40:09;101600.22;;;2.26;51.45
62800;BME280;48842;51.046;13.796;2023-01-29T00:42:35;101603.72;;;2.26;51.39
62800;BME280;48842;51.046;13.796;2023-01-29T00:45:18;101593.56;;;2.30;51.08
62800;BME280;48842;51.046;13.796;2023-01-29T00:47:44;101600.41;;;2.29;51.39
62800;BME280;48842;51.046;13.796;2023-01-29T00:50:10;101605.50;;;2.27;51.29
62800;BME280;48842;51.046;13.796;2023-01-29T00:52:36;101600.31;;;2.27;51.55
62800;BME280;48842;51.046;13.796;2023-01-29T00:55:03;101592.66;;;2.29;51.47
62800;BME280;48842;51.046;13.796;2023-01-29T00:57:30;101596.16;;;2.30;51.65
62800;BME280;48842;51.046;13.796;2023-01-29T00:59:56;101597.81;;;2.29;51.55
62800;BME280;48842;51.046;13.796;2023-01-29T01:02:22;101600.31;;;2.27;51.29
62800;BME280;48842;51.046;13.796;2023-01-29T01:05:08;101596.78;;;2.25;51.47
62800;BME280;48842;51.046;13.796;2023-01-29T01:07:38;101600.06;;;2.23;51.42
62800;BME280;48842;51.046;13.796;2023-01-29T01:10:03;101611.03;;;2.19;51.23
62800;BME280;48842;51.046;13.796;2023-01-29T01:15:14;101606.59;;;2.16;51.42
62800;BME280;48842;51.046;13.796;2023-01-29T01:17:40;101615.13;;;2.15;50.78
62800;BME280;48842;51.046;13.796;2023-01-29T01:20:05;101612.38;;;2.12;51.35
62800;BME280;48842;51.046;13.796;2023-01-29T01:22:31;101622.72;;;2.12;51.12
62800;BME280;48842;51.046;13.796;2023-01-29T01:24:56;101616.53;;;2.10;51.37
62800;BME280;48842;51.046;13.796;2023-01-29T01:27:21;101606.19;;;2.10;51.23
62800;BME280;48842;51.046;13.796;2023-01-29T01:29:47;101601.03;;;2.10;51.56
62800;BME280;48842;51.046;13.796;2023-01-29T01:32:12;101595.78;;;2.08;51.32
62800;BME280;48842;51.046;13.796;2023-01-29T01:34:37;101594.81;;;2.06;51.34
62800;BME280;48842;51.046;13.796;2023-01-29T01:37:03;101606.03;;;2.07;51.12
62800;BME280;48842;51.046;13.796;2023-01-29T01:39:28;101597.47;;;2.08;51.18
62800;BME280;48842;51.046;13.796;2023-01-29T01:41:53;101598.19;;;2.05;51.42
62800;BME280;48842;51.046;13.796;2023-01-29T01:44:51;101597.56;;;1.95;50.97
62800;BME280;48842;51.046;13.796;2023-01-29T01:47:22;101592.72;;;1.86;51.21
62800;BME280;48842;51.046;13.796;2023-01-29T01:49:48;101589.66;;;1.78;50.97
62800;BME280;48842;51.046;13.796;2023-01-29T01:52:14;101593.06;;;1.77;51.30
62800;BME280;48842;51.046;13.796;2023-01-29T01:54:41;101589.66;;;1.78;51.55
62800;BME280;48842;51.046;13.796;2023-01-29T01:57:13;101587.22;;;1.80;51.80
62800;BME280;48842;51.046;13.796;2023-01-29T01:59:49;101585.50;;;1.80;51.74
62800;BME280;48842;51.046;13.796;2023-01-29T02:02:16;101594.03;;;1.79;51.75
62800;BME280;48842;51.046;13.796;2023-01-29T02:05:01;101587.09;;;1.78;51.75
62800;BME280;48842;51.046;13.796;2023-01-29T02:07:46;101590.84;;;1.83;51.72
62800;BME280;48842;51.046;13.796;2023-01-29T02:10:38;101578.03;;;1.85;51.79
62800;BME280;48842;51.046;13.796;2023-01-29T02:13:05;101577.16;;;1.84;51.83
62800;BME280;48842;51.046;13.796;2023-01-29T02:15:31;101582.50;;;1.87;52.34
62800;BME280;48842;51.046;13.796;2023-01-29T02:17:56;101573.13;;;1.89;52.04
62800;BME280;48842;51.046;13.796;2023-01-29T02:20:25;101567.88;;;1.88;52.09
62800;BME280;48842;51.046;13.796;2023-01-29T02:23:15;101567.00;;;1.87;52.03
62800;BME280;48842;51.046;13.796;2023-01-29T02:28:23;101582.41;;;1.86;52.13
62800;BME280;48842;51.046;13.796;2023-01-29T02:31:15;101568.66;;;1.87;52.25
62800;BME280;48842;51.046;13.796;2023-01-29T02:36:33;101572.06;;;1.71;52.25
62800;BME280;48842;51.046;13.796;2023-01-29T02:39:16;101572.06;;;1.71;52.07
62800;BME280;48842;51.046;13.796;2023-01-29T02:44:43;101569.25;;;1.68;52.77
62800;BME280;48842;51.046;13.796;2023-01-29T02:49:52;101581.81;;;1.62;52.82
62800;BME280;48842;51.046;13.796;2023-01-29T02:52:25;101580.66;;;1.56;52.80
62800;BME280;48842;51.046;13.796;2023-01-29T02:54:57;101575.91;;;1.49;53.26
62800;BME280;48842;51.046;13.796;2023-01-29T02:57:29;101581.00;;;1.48;52.87
62800;BME280;48842;51.046;13.796;2023-01-29T03:05:58;101577.91;;;1.40;53.31
62800;BME280;48842;51.046;13.796;2023-01-29T03:08:31;101577.03;;;1.39;53.68
62800;BME280;48842;51.046;13.796;2023-01-29T03:11:08;101585.47;;;1.37;53.69
62800;BME280;48842;51.046;13.796;2023-01-29T03:13:44;101585.00;;;1.29;53.83
62800;BME280;48842;51.046;13.796;2023-01-29T03:16:25;101594.97;;;1.23;54.06
62800;BME280;48842;51.046;13.796;2023-01-29T03:18:56;101597.03;;;1.15;53.32
62800;BME280;48842;51.046;13.796;2023-01-29T03:21:30;101589.03;;;1.11;53.63
62800;BME280;48842;51.046;13.796;2023-01-29T03:24:24;101586.44;;;1.11;54.06
62800;BME280;48842;51.046;13.796;2023-01-29T03:27:11;101578.19;;;1.16;53.90
62800;BME280;48842;51.046;13.796;2023-01-29T03:29:58;101572.00;;;1.28;54.06
62800;BME280;48842;51.046;13.796;2023-01-29T03:32:43;101580.31;;;1.37;53.50
62800;BME280;48842;51.046;13.796;2023-01-29T03:35:13;101579.88;;;1.44;53.56
62800;BME280;48842;51.046;13.796;2023-01-29T03:37:46;101580.06;;;1.47;53.38
62800;BME280;48842;51.046;13.796;2023-01-29T03:40:13;101587.72;;;1.46;53.73
62800;BME280;48842;51.046;13.796;2023-01-29T03:45:37;101591.31;;;1.48;53.21
62800;BME280;48842;51.046;13.796;2023-01-29T03:51:04;101595.19;;;1.41;52.85
62800;BME280;48842;51.046;13.796;2023-01-29T03:53:58;101581.31;;;1.39;53.12
62800;BME280;48842;51.046;13.796;2023-01-29T03:56:56;101585.28;;;1.34;53.02
62800;BME280;48842;51.046;13.796;2023-01-29T03:59:43;101579.94;;;1.31;52.50
62800;BME280;48842;51.046;13.796;2023-01-29T04:02:16;101589.09;;;1.26;52.62
62800;BME280;48842;51.046;13.796;2023-01-29T04:04:45;101591.56;;;1.24;53.48
62800;BME280;48842;51.046;13.796;2023-01-29T04:07:16;101588.00;;;1.22;53.37
62800;BME280;48842;51.046;13.796;2023-01-29T04:09:50;101585.44;;;1.22;53.01
62800;BME280;48842;51.046;13.796;2023-01-29T04:12:24;101582.56;;;1.17;52.85
62800;BME280;48842;51.046;13.796;2023-01-29T04:14:51;101571.47;;;1.18;53.48
62800;BME280;48842;51.046;13.796;2023-01-29T04:17:21;101567.50;;;1.10;52.96
62800;BME280;48842;51.046;13.796;2023-01-29T04:19:48;101568.69;;;1.02;52.81
62800;BME280;48842;51.046;13.796;2023-01-29T04:22:34;101557.41;;;1.00;53.46
62800;BME280;48842;51.046;13.796;2023-01-29T04:25:03;101551.47;;;1.01;53.21
62800;BME280;48842;51.046;13.796;2023-01-29T04:27:43;101545.38;;;1.00;53.54
62800;BME280;48842;51.046;13.796;2023-01-29T04:33:11;101548.66;;;0.98;53.78
62800;BME280;48842;51.046;13.796;2023-01-29T04:38:34;101540.72;;;0.95;53.98
62800;BME280;48842;51.046;13.796;2023-01-29T04:41:15;101533.00;;;0.95;53.93
62800;BME280;48842;51.046;13.796;2023-01-29T04:44:04;101529.72;;;0.97;54.26
62800;BME280;48842;51.046;13.796;2023-01-29T04:46:51;101528.84;;;0.97;53.69
62800;BME280;48842;51.046;13.796;2023-01-29T04:49:58;101534.00;;;0.97;53.95
62800;BME280;48842;51.046;13.796;2023-01-29T04:55:14;101514.94;;;0.95;53.70
62800;BME280;48842;51.046;13.796;2023-01-29T04:57:51;101503.03;;;0.97;53.89
62800;BME280;48842;51.046;13.796;2023-01-29T05:00:25;101495.41;;;0.98;54.23
62800;BME280;48842;51.046;13.796;2023-01-29T05:02:53;101503.13;;;0.98;54.19
62800;BME280;48842;51.046;13.796;2023-01-29T05:05:20;101494.50;;;0.98;53.42
62800;BME280;48842;51.046;13.796;2023-01-29T05:07:46;101498.66;;;0.96;53.63
62800;BME280;48842;51.046;13.796;2023-01-29T05:10:13;101491.72;;;0.95;53.57
62800;BME280;48842;51.046;13.796;2023-01-29T05:12:42;101489.97;;;0.94;53.17
62800;BME280;48842;51.046;13.796;2023-01-29T05:15:13;101484.63;;;0.91;53.28
62800;BME280;48842;51.046;13.796;2023-01-29T05:17:41;101488.59;;;0.85;53.97
62800;BME280;48842;51.046;13.796;2023-01-29T05:20:07;101497.94;;;0.83;53.71
62800;BME280;48842;51.046;13.796;2023-01-29T05:22:36;101490.28;;;0.85;53.78
62800;BME280;48842;51.046;13.796;2023-01-29T05:25:05;101495.63;;;0.88;54.06
62800;BME280;48842;51.046;13.796;2023-01-29T05:27:34;101486.38;;;0.92;53.46
62800;BME280;48842;51.046;13.796;2023-01-29T05:30:19;101475.09;;;0.90;53.78
62800;BME280;48842;51.046;13.796;2023-01-29T05:32:44;101474.19;;;0.89;53.71
62800;BME280;48842;51.046;13.796;2023-01-29T05:35:09;101479.34;;;0.89;53.92
62800;BME280;48842;51.046;13.796;2023-01-29T05:37:34;101469.94;;;0.90;53.81
62800;BME280;48842;51.046;13.796;2023-01-29T05:40:00;101462.19;;;0.90;53.81
62800;BME280;48842;51.046;13.796;2023-01-29T05:42:25;101476.66;;;0.87;53.52
62800;BME280;48842;51.046;13.796;2023-01-29T05:44:50;101477.66;;;0.90;53.91
62800;BME280;48842;51.046;13.796;2023-01-29T05:47:19;101475.97;;;0.90;54.32
62800;BME280;48842;51.046;13.796;2023-01-29T05:49:44;101477.75;;;0.91;53.64
62800;BME280;48842;51.046;13.796;2023-01-29T05:52:09;101473.28;;;0.89;54.45
62800;BME280;48842;51.046;13.796;2023-01-29T05:54:35;101480.44;;;0.93;53.95
62800;BME280;48842;51.046;13.796;2023-01-29T05:57:00;101470.13;;;0.93;53.85
62800;BME280;48842;51.046;13.796;2023-01-29T05:59:25;101474.41;;;0.92;53.65
62800;BME280;48842;51.046;13.796;2023-01-29T06:01:50;101465.66;;;0.90;54.04
62800;BME280;48842;51.046;13.796;2023-01-29T06:04:16;101472.50;;;0.90;54.28
62800;BME280;48842;51.046;13.796;2023-01-29T06:06:41;101482.81;;;0.90;54.02
62800;BME280;48842;51.046;13.796;2023-01-29T06:09:09;101491.25;;;0.87;53.89
62800;BME280;48842;51.046;13.796;2023-01-29T06:11:34;101497.28;;;0.87;54.51
62800;BME280;48842;51.046;13.796;2023-01-29T06:13:59;101483.63;;;0.89;54.40
62800;BME280;48842;51.046;13.796;2023-01-29T06:16:25;101475.97;;;0.90;54.73
62800;BME280;48842;51.046;13.796;2023-01-29T06:18:50;101476.25;;;0.95;54.36
62800;BME280;48842;51.046;13.796;2023-01-29T06:21:15;101477.34;;;0.98;54.49
62800;BME280;48842;51.046;13.796;2023-01-29T06:23:41;101497.19;;;0.99;55.06
62800;BME280;48842;51.046;13.796;2023-01-29T06:26:09;101498.84;;;0.99;54.45
62800;BME280;48842;51.046;13.796;2023-01-29T06:28:35;101510.88;;;0.98;54.29
62800;BME280;48842;51.046;13.796;2023-01-29T06:31:02;101520.69;;;1.04;54.46
62800;BME280;48842;51.046;13.796;2023-01-29T06:33:27;101516.88;;;1.12;54.64
62800;BME280;48842;51.046;13.796;2023-01-29T06:35:56;101532.94;;;1.21;54.45
62800;BME280;48842;51.046;13.796;2023-01-29T06:38:22;101534.09;;;1.27;54.25
62800;BME280;48842;51.046;13.796;2023-01-29T06:40:47;101528.22;;;1.29;54.26
62800;BME280;48842;51.046;13.796;2023-01-29T06:43:12;101529.75;;;1.26;54.06
62800;BME280;48842;51.046;13.796;2023-01-29T06:45:44;101530.63;;;1.26;53.60
62800;BME280;48842;51.046;13.796;2023-01-29T06:48:09;101532.88;;;1.35;53.74
62800;BME280;48842;51.046;13.796;2023-01-29T06:50:35;101532.44;;;1.42;53.83
62800;BME280;48842;51.046;13.796;2023-01-29T06:53:00;101537.00;;;1.46;53.84
62800;BME280;48842;51.046;13.796;2023-01-29T06:55:25;101543.22;;;1.50;53.36
62800;BME280;48842;51.046;13.796;2023-01-29T06:57:50;101549.59;;;1.55;53.90
62800;BME280;48842;51.046;13.796;2023-01-29T07:00:17;101568.72;;;1.59;53.59
62800;BME280;48842;51.046;13.796;2023-01-29T07:02:42;101570.69;;;1.63;53.40
62800;BME280;48842;51.046;13.796;2023-01-29T07:05:07;101575.94;;;1.64;53.40
62800;BME280;48842;51.046;13.796;2023-01-29T07:07:34;101571.06;;;1.69;52.98
62800;BME280;48842;51.046;13.796;2023-01-29T07:09:59;101573.03;;;1.73;53.05
62800;BME280;48842;51.046;13.796;2023-01-29T07:12:25;101573.28;;;1.78;53.16
62800;BME280;48842;51.046;13.796;2023-01-29T07:14:50;101581.31;;;1.82;53.09
62800;BME280;48842;51.046;13.796;2023-01-29T07:17:15;101586.03;;;1.89;52.92
62800;BME280;48842;51.046;13.796;2023-01-29T07:19:40;101580.25;;;1.94;53.02
62800;BME280;48842;51.046;13.796;2023-01-29T07:22:06;101589.81;;;1.95;52.37
62800;BME280;48842;51.046;13.796;2023-01-29T07:24:31;101587.03;;;1.91;52.32
62800;BME280;48842;51.046;13.796;2023-01-29T07:26:56;101584.47;;;1.91;52.69
62800;BME280;48842;51.046;13.796;2023-01-29T07:29:21;101583.72;;;1.94;52.82
62800;BME280;48842;51.046;13.796;2023-01-29T07:31:47;101581.22;;;1.96;52.71
62800;BME280;48842;51.046;13.796;2023-01-29T07:34:12;101564.25;;;1.99;52.52
62800;BME280;48842;51.046;13.796;2023-01-29T07:36:37;101563.78;;;2.06;52.76
62800;BME280;48842;51.046;13.796;2023-01-29T07:39:03;101560.69;;;2.12;52.39
62800;BME280;48842;51.046;13.796;2023-01-29T07:41:29;101559.84;;;2.13;52.06
62800;BME280;48842;51.046;13.796;2023-01-29T07:43:54;101563.44;;;2.15;51.97
62800;BME280;48842;51.046;13.796;2023-01-29T07:46:19;101560.16;;;2.18;51.97
62800;BME280;48842;51.046;13.796;2023-01-29T07:48:44;101560.41;;;2.22;51.83
62800;BME280;48842;51.046;13.796;2023-01-29T07:51:10;101558.25;;;2.30;52.06
62800;BME280;48842;51.046;13.796;2023-01-29T07:53:35;101550.94;;;2.38;52.13
62800;BME280;48842;51.046;13.796;2023-01-29T07:56:01;101546.91;;;2.43;51.81
62800;BME280;48842;51.046;13.796;2023-01-29T07:58:27;101546.28;;;2.47;52.06
62800;BME280;48842;51.046;13.796;2023-01-29T08:00:52;101535.50;;;2.54;51.64
62800;BME280;48842;51.046;13.796;2023-01-29T08:03:18;101534.13;;;2.61;51.60
62800;BME280;48842;51.046;13.796;2023-01-29T08:05:46;101524.22;;;2.69;51.71
62800;BME280;48842;51.046;13.796;2023-01-29T08:08:11;101515.97;;;2.76;51.28
62800;BME280;48842;51.046;13.796;2023-01-29T08:10:38;101522.31;;;2.81;51.61
62800;BME280;48842;51.046;13.796;2023-01-29T08:13:05;101508.81;;;2.87;51.20
62800;BME280;48842;51.046;13.796;2023-01-29T08:15:31;101506.63;;;2.94;50.95
62800;BME280;48842;51.046;13.796;2023-01-29T08:17:56;101507.78;;;3.00;50.78
62800;BME280;48842;51.046;13.796;2023-01-29T08:20:22;101503.81;;;3.06;51.16
62800;BME280;48842;51.046;13.796;2023-01-29T08:22:47;101505.19;;;3.16;51.29
62800;BME280;48842;51.046;13.796;2023-01-29T08:25:13;101499.44;;;3.22;50.38
62800;BME280;48842;51.046;13.796;2023-01-29T08:27:39;101489.97;;;3.22;50.33
62800;BME280;48842;51.046;13.796;2023-01-29T08:30:05;101488.38;;;3.24;50.27
62800;BME280;48842;51.046;13.796;2023-01-29T08:32:31;101495.47;;;3.28;50.09
62800;BME280;48842;51.046;13.796;2023-01-29T08:34:56;101492.25;;;3.32;50.24
62800;BME280;48842;51.046;13.796;2023-01-29T08:37:22;101489.88;;;3.37;50.00
62800;BME280;48842;51.046;13.796;2023-01-29T08:39:47;101497.72;;;3.39;50.29
62800;BME280;48842;51.046;13.796;2023-01-29T08:42:12;101497.72;;;3.39;50.29
62800;BME280;48842;51.046;13.796;2023-01-29T08:44:38;101489.88;;;3.37;50.54
62800;BME280;48842;51.046;13.796;2023-01-29T08:47:03;101487.38;;;3.39;49.97
62800;BME280;48842;51.046;13.796;2023-01-29T08:49:28;101500.44;;;3.40;50.22
62800;BME280;48842;51.046;13.796;2023-01-29T08:51:53;101511.59;;;3.39;49.80
62800;BME280;48842;51.046;13.796;2023-01-29T08:54:21;101503.66;;;3.36;49.96
62800;BME280;48842;51.046;13.796;2023-01-29T08:56:46;101520.06;;;3.37;50.52
62800;BME280;48842;51.046;13.796;2023-01-29T08:59:11;101508.75;;;3.35;50.07
62800;BME280;48842;51.046;13.796;2023-01-29T09:01:37;101513.94;;;3.35;50.18
62800;BME280;48842;51.046;13.796;2023-01-29T09:04:02;101508.84;;;3.36;49.80
62800;BME280;48842;51.046;13.796;2023-01-29T09:06:27;101503.66;;;3.36;49.92
62800;BME280;48842;51.046;13.796;2023-01-29T09:08:52;101492.31;;;3.34;50.16
62800;BME280;48842;51.046;13.796;2023-01-29T09:11:18;101482.09;;;3.37;50.12
62800;BME280;48842;51.046;13.796;2023-01-29T09:13:43;101478.94;;;3.43;50.13
62800;BME280;48842;51.046;13.796;2023-01-29T09:16:09;101487.63;;;3.43;49.67
62800;BME280;48842;51.046;13.796;2023-01-29T09:18:34;101482.19;;;3.39;49.96
62800;BME280;48842;51.046;13.796;2023-01-29T09:20:59;101492.97;;;3.30;49.84
62800;BME280;48842;51.046;13.796;2023-01-29T09:23:27;101489.09;;;3.22;50.06
62800;BME280;48842;51.046;13.796;2023-01-29T09:25:52;101482.13;;;3.21;49.91
62800;BME280;48842;51.046;13.796;2023-01-29T09:28:17;101489.19;;;3.23;49.88
62800;BME280;48842;51.046;13.796;2023-01-29T09:30:43;101472.84;;;3.24;49.76
62800;BME280;48842;51.046;13.796;2023-01-29T09:33:09;101460.69;;;3.23;49.97
62800;BME280;48842;51.046;13.796;2023-01-29T09:35:34;101466.59;;;3.21;49.74
62800;BME280;48842;51.046;13.796;2023-01-29T09:37:59;101475.91;;;3.17;49.90
62800;BME280;48842;51.046;13.796;2023-01-29T09:40:30;101484.97;;;3.09;50.10
62800;BME280;48842;51.046;13.796;2023-01-29T09:43:03;101483.56;;;2.99;49.99
62800;BME280;48842;51.046;13.796;2023-01-29T09:45:29;101471.94;;;3.07;50.28
62800;BME280;48842;51.046;13.796;2023-01-29T09:47:58;101483.75;;;3.19;50.57
62800;BME280;48842;51.046;13.796;2023-01-29T09:50:37;101466.75;;;3.24;50.21
62800;BME280;48842;51.046;13.796;2023-01-29T09:53:20;101460.06;;;3.27;49.84
62800;BME280;48842;51.046;13.796;2023-01-29T09:55:57;101454.22;;;3.31;50.06
62800;BME280;48842;51.046;13.796;2023-01-29T09:58:33;101446.84;;;3.39;50.52
62800;BME280;48842;51.046;13.796;2023-01-29T10:01:12;101439.22;;;3.42;50.10
62800;BME280;48842;51.046;13.796;2023-01-29T10:04:00;101434.19;;;3.45;49.86
62800;BME280;48842;51.046;13.796;2023-01-29T10:06:51;101435.25;;;3.49;50.31
62800;BME280;48842;51.046;13.796;2023-01-29T10:12:29;101430.91;;;3.66;50.36
62800;BME280;48842;51.046;13.796;2023-01-29T10:18:31;101435.34;;;3.69;49.58
62800;BME280;48842;51.046;13.796;2023-01-29T10:21:11;101428.47;;;3.69;49.80
62800;BME280;48842;51.046;13.796;2023-01-29T10:23:48;101420.69;;;3.69;49.50
62800;BME280;48842;51.046;13.796;2023-01-29T10:26:15;101428.47;;;3.69;49.58
62800;BME280;48842;51.046;13.796;2023-01-29T10:28:42;101423.22;;;3.67;49.97
62800;BME280;48842;51.046;13.796;2023-01-29T10:31:29;101422.63;;;3.73;50.09
62800;BME280;48842;51.046;13.796;2023-01-29T10:34:13;101430.56;;;3.76;49.89
62800;BME280;48842;51.046;13.796;2023-01-29T10:36:44;101433.97;;;3.75;49.84
62800;BME280;48842;51.046;13.796;2023-01-29T10:39:20;101429.97;;;3.64;49.59
62800;BME280;48842;51.046;13.796;2023-01-29T10:55:30;101408.94;;;3.76;50.67
62800;BME280;48842;51.046;13.796;2023-01-29T11:00:41;101390.81;;;3.76;52.26
62800;BME280;48842;51.046;13.796;2023-01-29T11:03:15;101380.72;;;3.64;53.10
62800;BME280;48842;51.046;13.796;2023-01-29T11:05:46;101370.06;;;3.58;53.50
62800;BME280;48842;51.046;13.796;2023-01-29T11:08:18;101363.84;;;3.54;53.96
62800;BME280;48842;51.046;13.796;2023-01-29T11:10:56;101372.41;;;3.53;53.96
62800;BME280;48842;51.046;13.796;2023-01-29T11:13:30;101361.97;;;3.52;53.51
62800;BME280;48842;51.046;13.796;2023-01-29T11:15:56;101356.00;;;3.53;54.20
62800;BME280;48842;51.046;13.796;2023-01-29T11:18:22;101346.50;;;3.53;54.38
62800;BME280;48842;51.046;13.796;2023-01-29T11:21:00;101343.19;;;3.56;54.39
62800;BME280;48842;51.046;13.796;2023-01-29T11:23:31;101339.00;;;3.58;54.45
62800;BME280;48842;51.046;13.796;2023-01-29T11:25:58;101342.75;;;3.64;53.90
62800;BME280;48842;51.046;13.796;2023-01-29T11:28:49;101331.72;;;3.69;53.40
62800;BME280;48842;51.046;13.796;2023-01-29T11:31:17;101328.34;;;3.70;54.15
62800;BME280;48842;51.046;13.796;2023-01-29T11:33:44;101317.06;;;3.69;55.06
62800;BME280;48842;51.046;13.796;2023-01-29T11:39:10;101306.75;;;3.71;55.27
62800;BME280;48842;51.046;13.796;2023-01-29T11:41:47;101311.28;;;3.75;54.80
62800;BME280;48842;51.046;13.796;2023-01-29T11:44:17;101312.25;;;3.77;55.07
62800;BME280;48842;51.046;13.796;2023-01-29T11:46:42;101308.97;;;3.81;55.04
62800;BME280;48842;51.046;13.796;2023-01-29T11:49:20;101316.88;;;3.84;56.35
62800;BME280;48842;51.046;13.796;2023-01-29T11:51:51;101312.69;;;3.86;55.72
62800;BME280;48842;51.046;13.796;2023-01-29T11:54:18;101313.50;;;3.85;54.97
62800;BME280;48842;51.046;13.796;2023-01-29T11:56:45;101311.63;;;3.82;54.91
62800;BME280;48842;51.046;13.796;2023-01-29T11:59:38;101302.13;;;3.81;55.75
62800;BME280;48842;51.046;13.796;2023-01-29T12:02:16;101302.31;;;3.86;55.51
62800;BME280;48842;51.046;13.796;2023-01-29T12:04:43;101299.88;;;3.89;56.09
62800;BME280;48842;51.046;13.796;2023-01-29T12:07:14;101287.84;;;3.91;57.10
62800;BME280;48842;51.046;13.796;2023-01-29T12:09:40;101283.66;;;3.93;56.42
62800;BME280;48842;51.046;13.796;2023-01-29T12:12:31;101284.59;;;3.95;56.19
62800;BME280;48842;51.046;13.796;2023-01-29T12:15:20;101276.88;;;3.97;55.98
62800;BME280;48842;51.046;13.796;2023-01-29T12:17:57;101272.69;;;3.99;55.56
62800;BME280;48842;51.046;13.796;2023-01-29T12:20:29;101271.09;;;4.02;54.34
62800;BME280;48842;51.046;13.796;2023-01-29T12:23:09;101264.31;;;4.05;54.71
62800;BME280;48842;51.046;13.796;2023-01-29T12:28:35;101238.78;;;4.14;54.72
62800;BME280;48842;51.046;13.796;2023-01-29T12:31:27;101230.19;;;4.15;54.42
62800;BME280;48842;51.046;13.796;2023-01-29T12:34:03;101224.22;;;4.17;53.67
62800;BME280;48842;51.046;13.796;2023-01-29T12:39:36;101232.72;;;4.13;53.43
62800;BME280;48842;51.046;13.796;2023-01-29T12:42:04;101238.66;;;4.11;53.31
62800;BME280;48842;51.046;13.796;2023-01-29T12:44:37;101229.81;;;4.07;53.27
62800;BME280;48842;51.046;13.796;2023-01-29T12:47:13;101229.75;;;4.06;53.61
62800;BME280;48842;51.046;13.796;2023-01-29T12:49:40;101230.59;;;4.05;53.53
62800;BME280;48842;51.046;13.796;2023-01-29T12:52:20;101231.53;;;4.07;53.82
62800;BME280;48842;51.046;13.796;2023-01-29T12:55:02;101221.97;;;4.06;55.41
62800;BME280;48842;51.046;13.796;2023-01-29T12:58:04;101225.25;;;4.01;55.24
62800;BME280;48842;51.046;13.796;2023-01-29T13:00:36;101221.72;;;3.99;55.13
62800;BME280;48842;51.046;13.796;2023-01-29T13:05:52;101210.94;;;4.10;54.61
62800;BME280;48842;51.046;13.796;2023-01-29T13:08:22;101217.31;;;4.16;54.27
62800;BME280;48842;51.046;13.796;2023-01-29T13:10:51;101209.72;;;4.21;54.77
62800;BME280;48842;51.046;13.796;2023-01-29T13:13:29;101215.03;;;4.24;55.09
62800;BME280;48842;51.046;13.796;2023-01-29T13:15:56;101195.16;;;4.25;54.63
62800;BME280;48842;51.046;13.796;2023-01-29T13:18:39;101188.22;;;4.24;55.00
62800;BME280;48842;51.046;13.796;2023-01-29T13:21:12;101188.34;;;4.27;54.24
62800;BME280;48842;51.046;13.796;2023-01-29T13:23:42;101195.28;;;4.28;54.58
62800;BME280;48842;51.046;13.796;2023-01-29T13:26:10;101179.84;;;4.29;54.62
62800;BME280;48842;51.046;13.796;2023-01-29T13:28:35;101183.44;;;4.33;54.53
62800;BME280;48842;51.046;13.796;2023-01-29T13:31:22;101176.66;;;4.36;55.13
62800;BME280;48842;51.046;13.796;2023-01-29T13:34:06;101181.09;;;4.39;54.74
62800;BME280;48842;51.046;13.796;2023-01-29T13:36:33;101179.47;;;4.41;54.76
62800;BME280;48842;51.046;13.796;2023-01-29T13:39:03;101182.06;;;4.41;54.41
62800;BME280;48842;51.046;13.796;2023-01-29T13:41:31;101179.53;;;4.43;54.26
62800;BME280;48842;51.046;13.796;2023-01-29T13:43:57;101183.06;;;4.45;54.24
62800;BME280;48842;51.046;13.796;2023-01-29T13:46:23;101183.88;;;4.44;54.42
62800;BME280;48842;51.046;13.796;2023-01-29T13:48:49;101187.38;;;4.44;53.70
62800;BME280;48842;51.046;13.796;2023-01-29T13:51:19;101189.13;;;4.45;54.51
62800;BME280;48842;51.046;13.796;2023-01-29T13:54:12;101192.44;;;4.41;55.92
62800;BME280;48842;51.046;13.796;2023-01-29T13:56:44;101188.81;;;4.37;55.65
62800;BME280;48842;51.046;13.796;2023-01-29T13:59:47;101179.25;;;4.36;56.74
62800;BME280;48842;51.046;13.796;2023-01-29T14:02:28;101180.16;;;4.37;57.27
62800;BME280;48842;51.046;13.796;2023-01-29T14:05:32;101178.44;;;4.37;56.62
62800;BME280;48842;51.046;13.796;2023-01-29T14:10:25;101164.34;;;4.31;55.71
62800;BME280;48842;51.046;13.796;2023-01-29T14:12:52;101174.78;;;4.32;56.12
62800;BME280;48842;51.046;13.796;2023-01-29T14:15:21;101175.84;;;4.37;55.73
62800;BME280;48842;51.046;13.796;2023-01-29T14:18:21;101174.97;;;4.37;55.79
62800;BME280;48842;51.046;13.796;2023-01-29T14:20:58;101166.03;;;4.30;55.96